createdAt,value
2018-04-30T00:02:04.958Z,10.18
2018-04-30T00:04:36.782Z,10.16
2018-04-30T00:07:07.507Z,10.40
2018-04-30T00:09:38.298Z,10.48
2018-04-30T00:12:08.769Z,10.08
2018-04-30T00:14:39.877Z,10.75
2018-04-30T00:17:10.585Z,9.70
2018-04-30T00:19:41.316Z,10.63
2018-04-30T00:22:11.875Z,9.10
2018-04-30T00:24:42.635Z,10.20
2018-04-30T00:27:13.383Z,10.07
2018-04-30T00:29:44.354Z,10.07
2018-04-30T00:32:15.218Z,9.13
2018-04-30T00:34:46.296Z,9.32
2018-04-30T00:37:17.162Z,9.07
2018-04-30T00:39:48.170Z,9.32
2018-04-30T00:42:19.166Z,8.85
2018-04-30T00:44:50.266Z,9.35
2018-04-30T00:47:20.759Z,9.02
2018-04-30T00:49:51.530Z,8.73
2018-04-30T00:52:22.278Z,9.43
2018-04-30T00:55:01.867Z,9.30
2018-04-30T00:57:31.110Z,8.70
2018-04-30T01:00:00.542Z,8.88
2018-04-30T01:02:29.601Z,8.63
2018-04-30T01:04:58.549Z,8.33
2018-04-30T01:07:27.546Z,8.17
2018-04-30T01:09:58.310Z,8.68
2018-04-30T01:12:29.197Z,7.60
2018-04-30T01:15:00.820Z,8.52
2018-04-30T01:17:31.510Z,9.15
2018-04-30T01:20:02.286Z,9.00
2018-04-30T01:22:33.250Z,8.38
2018-04-30T01:25:04.339Z,8.77
2018-04-30T01:27:35.204Z,8.75
2018-04-30T01:30:06.030Z,8.73
2018-04-30T01:32:37.482Z,8.48
2018-04-30T01:35:08.335Z,8.68
2018-04-30T01:37:39.188Z,9.05
2018-04-30T01:40:10.554Z,8.65
2018-04-30T01:42:40.542Z,9.43
2018-04-30T01:45:11.619Z,9.35
2018-04-30T01:47:42.354Z,10.15
2018-04-30T01:50:13.238Z,9.25
2018-04-30T01:52:44.200Z,9.30
2018-04-30T01:55:15.358Z,8.77
2018-04-30T01:57:46.183Z,9.30
2018-04-30T02:00:17.743Z,9.64
2018-04-30T02:02:48.331Z,9.05
2018-04-30T02:05:19.260Z,9.27
2018-04-30T02:07:50.121Z,9.90
2018-04-30T02:10:21.259Z,9.73
2018-04-30T02:12:52.207Z,9.50
2018-04-30T02:15:23.491Z,9.88
2018-04-30T02:17:54.175Z,9.80
2018-04-30T02:20:25.367Z,9.95
2018-04-30T02:22:56.176Z,9.25
2018-04-30T02:25:27.195Z,9.73
2018-04-30T02:27:58.176Z,9.75
2018-04-30T02:30:29.190Z,9.68
2018-04-30T02:33:00.179Z,10.50
2018-04-30T02:35:31.278Z,9.90
2018-04-30T02:38:02.214Z,9.38
2018-04-30T02:40:33.281Z,10.18
2018-04-30T02:43:04.159Z,10.10
2018-04-30T02:45:34.860Z,10.04
2018-04-30T02:48:05.567Z,9.23
2018-04-30T02:50:36.347Z,10.93
2018-04-30T02:53:07.221Z,10.40
2018-04-30T02:55:38.183Z,10.80
2018-04-30T02:58:08.798Z,11.12
2018-04-30T03:00:39.599Z,10.94
2018-04-30T03:03:10.335Z,12.50
2018-04-30T03:05:41.299Z,11.00
2018-04-30T03:08:12.245Z,10.77
2018-04-30T03:10:42.921Z,10.74
2018-04-30T03:13:13.572Z,10.74
2018-04-30T03:15:44.980Z,11.10
2018-04-30T03:18:15.177Z,11.40
2018-04-30T03:20:46.590Z,11.73
2018-04-30T03:23:17.307Z,11.45
2018-04-30T03:25:48.323Z,11.50
2018-04-30T03:28:18.848Z,11.12
2018-04-30T03:30:49.782Z,11.85
2018-04-30T03:33:20.489Z,11.50
2018-04-30T03:35:51.004Z,11.92
2018-04-30T03:38:21.714Z,11.63
2018-04-30T03:40:52.490Z,11.50
2018-04-30T03:43:23.234Z,11.55
2018-04-30T03:45:54.255Z,11.98
2018-04-30T03:48:25.216Z,12.02
2018-04-30T03:50:56.267Z,12.45
2018-04-30T03:53:27.275Z,12.00
2018-04-30T03:55:58.237Z,12.40
2018-04-30T03:58:29.164Z,11.65
2018-04-30T04:04:13.458Z,11.33
2018-04-30T04:06:53.378Z,12.00
2018-04-30T04:09:22.666Z,10.93
2018-04-30T04:11:51.901Z,11.60
2018-04-30T04:14:20.922Z,11.03
2018-04-30T04:16:50.306Z,11.93
2018-04-30T04:19:19.269Z,11.47
2018-04-30T04:21:48.270Z,11.17
2018-04-30T04:24:17.244Z,10.43
2018-04-30T04:26:46.201Z,10.37
2018-04-30T04:29:15.547Z,10.47
2018-04-30T04:31:44.868Z,10.73
2018-04-30T04:34:13.815Z,9.90
2018-04-30T04:36:42.931Z,9.80
2018-04-30T04:39:11.870Z,10.17
2018-04-30T04:41:40.903Z,10.30
2018-04-30T04:44:10.550Z,10.60
2018-04-30T04:46:39.754Z,9.63
2018-04-30T04:49:08.806Z,10.27
2018-04-30T04:51:37.858Z,9.20
2018-04-30T04:54:06.791Z,9.07
2018-04-30T04:56:35.720Z,9.90
2018-04-30T04:59:04.802Z,9.03
2018-04-30T05:01:34.163Z,10.05
2018-04-30T05:04:03.139Z,9.70
2018-04-30T05:06:32.550Z,9.50
2018-04-30T05:09:01.535Z,9.43
2018-04-30T05:11:30.508Z,9.13
2018-04-30T05:13:59.539Z,10.00
2018-04-30T05:16:28.534Z,10.00
2018-04-30T05:18:57.986Z,9.40
2018-04-30T05:21:29.373Z,9.07
2018-04-30T05:23:59.687Z,9.86
2018-04-30T05:26:30.410Z,9.57
2018-04-30T05:29:01.282Z,10.13
2018-04-30T05:31:33.065Z,10.14
2018-04-30T05:34:03.806Z,9.40
2018-04-30T05:36:33.764Z,9.80
2018-04-30T05:39:04.330Z,9.95
2018-04-30T05:41:36.772Z,9.40
2018-04-30T05:44:09.812Z,9.08
2018-04-30T05:46:38.813Z,8.83
2018-04-30T05:49:09.514Z,9.50
2018-04-30T05:51:40.294Z,8.95
2018-04-30T05:54:11.209Z,9.30
2018-04-30T05:56:42.312Z,7.93
2018-04-30T05:59:13.203Z,9.25
2018-04-30T06:01:44.278Z,8.40
2018-04-30T06:04:15.174Z,8.90
2018-04-30T06:06:46.207Z,8.95
2018-04-30T06:09:17.261Z,8.55
2018-04-30T06:11:48.404Z,9.63
2018-04-30T06:14:19.156Z,8.38
2018-04-30T06:16:50.199Z,8.68
2018-04-30T06:19:21.677Z,8.93
2018-04-30T06:21:52.577Z,9.50
2018-04-30T06:24:22.514Z,8.68
2018-04-30T06:26:53.672Z,8.85
2018-04-30T06:29:24.535Z,8.50
2018-04-30T06:31:56.094Z,8.14
2018-04-30T06:34:26.705Z,9.75
2018-04-30T06:36:57.452Z,8.90
2018-04-30T06:39:27.922Z,8.57
2018-04-30T06:41:59.581Z,8.70
2018-04-30T06:44:30.322Z,8.52
2018-04-30T06:47:01.254Z,8.15
2018-04-30T06:49:32.233Z,8.20
2018-04-30T06:52:03.310Z,8.18
2018-04-30T06:54:34.185Z,8.82
2018-04-30T06:57:05.270Z,8.48
2018-04-30T06:59:36.200Z,8.85
2018-04-30T07:02:07.493Z,7.43
2018-04-30T07:04:37.535Z,7.53
2018-04-30T07:07:08.221Z,7.93
2018-04-30T07:09:39.362Z,7.03
2018-04-30T07:12:10.390Z,7.55
2018-04-30T07:14:41.203Z,7.57
2018-04-30T07:17:12.261Z,8.00
2018-04-30T07:19:43.550Z,7.60
2018-04-30T07:22:14.267Z,7.45
2018-04-30T07:24:45.228Z,7.90
2018-04-30T07:27:16.217Z,7.28
2018-04-30T07:29:47.202Z,6.80
2018-04-30T07:32:18.573Z,7.55
2018-04-30T07:34:49.302Z,7.45
2018-04-30T07:37:20.294Z,7.68
2018-04-30T07:39:51.179Z,6.97
2018-04-30T07:42:22.581Z,7.05
2018-04-30T07:44:53.708Z,7.00
2018-04-30T07:47:24.841Z,6.43
2018-04-30T07:49:55.570Z,6.43
2018-04-30T07:52:26.296Z,6.97
2018-04-30T07:54:56.811Z,6.14
2018-04-30T07:57:27.574Z,7.10
2018-04-30T07:59:58.294Z,6.75
2018-04-30T08:02:29.585Z,6.55
2018-04-30T08:05:00.265Z,6.55
2018-04-30T08:07:31.286Z,6.72
2018-04-30T08:10:02.163Z,6.70
2018-04-30T08:12:33.549Z,5.85
2018-04-30T08:15:04.107Z,5.70
2018-04-30T08:17:34.796Z,5.68
2018-04-30T08:20:05.555Z,6.00
2018-04-30T08:22:36.686Z,6.05
2018-04-30T08:25:07.383Z,6.35
2018-04-30T08:27:38.296Z,6.40
2018-04-30T08:30:09.206Z,5.45
2018-04-30T08:32:40.003Z,6.06
2018-04-30T08:35:10.514Z,6.23
2018-04-30T08:37:41.303Z,5.43
2018-04-30T08:40:12.226Z,6.15
2018-04-30T08:42:43.240Z,5.18
2018-04-30T08:45:14.261Z,5.78
2018-04-30T08:47:45.200Z,5.55
2018-04-30T08:50:15.518Z,5.50
2018-04-30T08:52:46.315Z,6.03
2018-04-30T08:55:16.867Z,5.94
2018-04-30T08:57:47.610Z,5.74
2018-04-30T09:00:18.645Z,4.75
2018-04-30T09:02:49.540Z,5.97
2018-04-30T09:05:20.330Z,5.72
2018-04-30T09:07:51.213Z,5.37
2018-04-30T09:10:21.782Z,5.18
2018-04-30T09:12:52.541Z,5.43
2018-04-30T09:15:23.672Z,4.12
2018-04-30T09:17:54.023Z,4.65
2018-04-30T09:20:24.731Z,3.95
2018-04-30T09:22:55.538Z,4.45
2018-04-30T09:25:25.506Z,4.50
2018-04-30T09:27:56.280Z,3.75
2018-04-30T09:30:26.765Z,4.10
2018-04-30T09:32:57.522Z,4.30
2018-04-30T09:35:28.285Z,3.83
2018-04-30T09:37:59.314Z,4.07
2018-04-30T09:40:30.244Z,3.25
2018-04-30T09:43:01.231Z,4.40
2018-04-30T09:45:32.793Z,4.32
2018-04-30T09:48:03.584Z,3.80
2018-04-30T09:50:34.223Z,3.95
2018-04-30T09:53:05.323Z,3.92
2018-04-30T09:55:36.177Z,4.62
2018-04-30T09:58:07.219Z,3.62
2018-04-30T10:00:38.166Z,3.83
2018-04-30T10:03:09.313Z,3.65
2018-04-30T10:05:40.155Z,3.60
2018-04-30T10:08:11.466Z,3.53
2018-04-30T10:10:41.535Z,3.95
2018-04-30T10:13:12.294Z,3.40
2018-04-30T10:15:43.502Z,4.18
2018-04-30T10:18:14.305Z,3.80
2018-04-30T10:20:44.971Z,3.47
2018-04-30T10:23:15.601Z,3.54
2018-04-30T10:25:46.300Z,4.30
2018-04-30T10:28:17.134Z,4.10
2018-04-30T10:30:48.233Z,4.05
2018-04-30T10:33:19.248Z,3.65
2018-04-30T10:35:50.215Z,3.78
2018-04-30T10:38:21.503Z,4.07
2018-04-30T10:40:52.246Z,4.05
2018-04-30T10:43:23.160Z,4.12
2018-04-30T10:45:53.801Z,3.92
2018-04-30T10:48:25.079Z,4.32
2018-04-30T10:50:55.689Z,4.60
2018-04-30T10:53:26.842Z,4.28
2018-04-30T10:55:57.635Z,4.72
2018-04-30T10:58:28.643Z,4.35
2018-04-30T11:00:58.615Z,4.60
2018-04-30T11:03:29.380Z,4.20
2018-04-30T11:06:00.200Z,4.35
2018-04-30T11:08:31.475Z,4.55
2018-04-30T11:11:02.225Z,4.68
2018-04-30T11:13:33.285Z,4.53
2018-04-30T11:16:04.817Z,4.47
2018-04-30T11:18:35.720Z,4.65
2018-04-30T11:21:06.429Z,4.37
2018-04-30T11:23:37.218Z,4.47
2018-04-30T11:26:08.526Z,4.50
2018-04-30T11:28:39.426Z,4.70
2018-04-30T11:31:10.286Z,4.32
2018-04-30T11:33:42.096Z,4.88
2018-04-30T11:36:11.756Z,4.20
2018-04-30T11:38:42.570Z,4.05
2018-04-30T11:41:13.234Z,4.70
2018-04-30T11:43:44.288Z,3.92
2018-04-30T11:46:15.177Z,4.05
2018-04-30T11:48:46.130Z,3.97
2018-04-30T11:51:17.250Z,4.75
2018-04-30T11:53:48.276Z,4.37
2018-04-30T11:56:19.246Z,4.28
2018-04-30T11:58:50.458Z,3.87
2018-04-30T12:01:21.389Z,3.67
2018-04-30T12:03:52.634Z,3.75
2018-04-30T12:06:23.369Z,4.00
2018-04-30T12:08:54.296Z,3.85
2018-04-30T12:11:25.249Z,4.05
2018-04-30T12:13:56.295Z,3.83
2018-04-30T12:16:26.893Z,3.83
2018-04-30T12:18:58.595Z,3.86
2018-04-30T12:21:29.280Z,3.83
2018-04-30T12:24:00.325Z,3.65
2018-04-30T12:26:31.144Z,4.30
2018-04-30T12:29:02.258Z,3.62
2018-04-30T12:31:33.140Z,3.80
2018-04-30T12:34:03.826Z,3.78
2018-04-30T12:36:34.879Z,3.58
2018-04-30T12:39:05.026Z,3.83
2018-04-30T12:41:36.210Z,3.70
2018-04-30T12:44:06.815Z,3.50
2018-04-30T12:46:37.612Z,3.50
2018-04-30T12:49:08.349Z,3.60
2018-04-30T12:51:38.961Z,3.50
2018-04-30T12:54:09.791Z,3.64
2018-04-30T12:56:40.585Z,3.70
2018-04-30T12:59:11.698Z,3.83
2018-04-30T13:01:42.529Z,3.58
2018-04-30T13:04:13.316Z,4.05
2018-04-30T13:06:44.311Z,3.85
2018-04-30T13:09:15.244Z,3.92
2018-04-30T13:11:45.892Z,3.52
2018-04-30T13:14:16.597Z,3.90
2018-04-30T13:16:47.332Z,3.72
2018-04-30T13:19:18.340Z,3.70
2018-04-30T13:21:49.208Z,3.45
2018-04-30T13:24:19.905Z,4.34
2018-04-30T13:26:50.435Z,3.70
2018-04-30T13:29:21.201Z,3.95
2018-04-30T13:31:51.932Z,3.60
2018-04-30T13:34:22.183Z,3.80
2018-04-30T13:36:53.557Z,4.30
2018-04-30T13:39:23.661Z,3.75
2018-04-30T13:41:54.381Z,3.72
2018-04-30T13:44:25.282Z,3.58
2018-04-30T13:46:56.272Z,3.72
2018-04-30T13:49:27.774Z,3.70
2018-04-30T13:51:58.508Z,3.50
2018-04-30T13:54:29.321Z,3.37
2018-04-30T13:56:59.932Z,3.42
2018-04-30T13:59:31.528Z,3.70
2018-04-30T14:02:02.253Z,3.37
2018-04-30T14:04:33.222Z,3.85
2018-04-30T14:07:04.309Z,3.67
2018-04-30T14:09:35.312Z,3.92
2018-04-30T14:12:06.459Z,3.78
2018-04-30T14:14:38.255Z,3.60
2018-04-30T14:17:08.846Z,4.46
2018-04-30T14:19:39.639Z,4.53
2018-04-30T14:22:10.362Z,4.93
2018-04-30T14:24:41.527Z,3.90
2018-04-30T14:27:12.238Z,4.87
2018-04-30T14:29:43.268Z,4.55
2018-04-30T14:32:14.267Z,4.40
2018-04-30T14:34:45.510Z,4.40
2018-04-30T14:37:16.234Z,5.03
2018-04-30T14:39:47.300Z,5.03
2018-04-30T14:42:18.099Z,4.68
2018-04-30T14:44:49.345Z,3.97
2018-04-30T14:47:20.282Z,4.30
2018-04-30T14:49:51.441Z,4.40
2018-04-30T14:52:22.209Z,4.53
2018-04-30T14:54:53.294Z,5.03
2018-04-30T14:57:24.427Z,4.85
2018-04-30T14:59:55.289Z,5.10
2018-04-30T15:02:26.268Z,4.22
2018-04-30T15:04:57.233Z,3.87
2018-04-30T15:07:28.273Z,3.72
2018-04-30T15:09:58.977Z,4.50
2018-04-30T15:12:30.535Z,4.10
2018-04-30T15:15:01.326Z,4.40
2018-04-30T15:17:32.249Z,3.95
2018-04-30T15:20:03.282Z,3.70
2018-04-30T15:22:34.181Z,3.20
2018-04-30T15:25:05.091Z,2.90
2018-04-30T15:27:35.758Z,2.85
2018-04-30T15:30:06.613Z,2.97
2018-04-30T15:32:37.320Z,3.00
2018-04-30T15:35:08.240Z,2.60
2018-04-30T15:37:39.238Z,2.42
2018-04-30T15:40:10.039Z,2.96
2018-04-30T15:42:40.694Z,2.75
2018-04-30T15:45:11.420Z,2.70
2018-04-30T15:47:42.329Z,3.20
2018-04-30T15:50:12.263Z,2.90
2018-04-30T15:52:42.832Z,2.60
2018-04-30T15:55:13.779Z,2.67
2018-04-30T15:57:44.747Z,2.97
2018-04-30T16:00:16.501Z,2.40
2018-04-30T16:02:47.202Z,2.72
2018-04-30T16:05:18.172Z,2.40
2018-04-30T16:07:48.823Z,2.80
2018-04-30T16:10:19.545Z,2.17
2018-04-30T16:12:50.283Z,3.17
2018-04-30T16:15:21.251Z,2.70
2018-04-30T16:17:52.119Z,2.60
2018-04-30T16:20:23.281Z,2.50
2018-04-30T16:22:54.208Z,2.50
2018-04-30T16:25:25.236Z,2.47
2018-04-30T16:27:56.171Z,2.60
2018-04-30T16:30:27.221Z,2.60
2018-04-30T16:32:58.767Z,2.92
2018-04-30T16:35:29.522Z,2.95
2018-04-30T16:37:59.483Z,2.75
2018-04-30T16:40:30.264Z,2.72
2018-04-30T16:43:00.815Z,2.38
2018-04-30T16:45:31.926Z,2.92
2018-04-30T16:48:03.018Z,2.26
2018-04-30T16:50:33.751Z,2.38
2018-04-30T16:53:04.476Z,3.47
2018-04-30T16:55:35.294Z,3.40
2018-04-30T16:58:06.154Z,3.60
2018-04-30T17:00:37.299Z,3.03
2018-04-30T17:03:08.181Z,4.78
2018-04-30T17:05:39.288Z,7.28
2018-04-30T17:08:10.262Z,6.25
2018-04-30T17:10:41.532Z,5.25
2018-04-30T17:13:12.322Z,4.12
2018-04-30T17:15:43.218Z,3.83
2018-04-30T17:18:14.214Z,3.22
2018-04-30T17:20:44.897Z,4.04
2018-04-30T17:23:15.534Z,3.98
2018-04-30T17:25:46.346Z,3.45
2018-04-30T17:28:17.263Z,4.00
2018-04-30T17:30:48.678Z,3.75
2018-04-30T17:33:19.401Z,3.80
2018-04-30T17:35:50.348Z,4.00
2018-04-30T17:38:21.263Z,3.87
2018-04-30T17:40:53.111Z,3.60
2018-04-30T17:43:24.063Z,3.67
2018-04-30T17:45:55.135Z,3.67
2018-04-30T17:48:25.771Z,3.50
2018-04-30T17:50:56.918Z,3.60
2018-04-30T17:53:27.538Z,3.68
2018-04-30T17:55:58.363Z,3.50
2018-04-30T17:58:29.120Z,3.37
2018-04-30T18:01:00.298Z,3.20
2018-04-30T18:03:31.198Z,3.85
2018-04-30T18:06:02.306Z,5.55
2018-04-30T18:08:33.162Z,5.30
2018-04-30T18:11:04.569Z,5.82
2018-04-30T18:13:35.364Z,4.90
2018-04-30T18:16:06.259Z,5.22
2018-04-30T18:18:37.234Z,5.55
2018-04-30T18:21:08.242Z,6.35
2018-04-30T18:23:39.245Z,6.45
2018-04-30T18:26:10.430Z,7.03
2018-04-30T18:28:41.125Z,7.53
2018-04-30T18:31:12.795Z,9.48
2018-04-30T18:33:43.513Z,9.55
2018-04-30T18:36:14.350Z,8.20
2018-04-30T18:38:45.193Z,7.87
2018-04-30T18:41:16.315Z,22.35
2018-04-30T18:43:47.207Z,11.82
2018-04-30T18:46:18.747Z,10.48
2018-04-30T18:48:49.515Z,8.00
2018-04-30T18:51:20.355Z,7.47
2018-04-30T18:53:51.298Z,6.90
2018-04-30T18:56:22.230Z,8.07
2018-04-30T18:58:53.290Z,8.07
2018-04-30T19:01:24.275Z,7.62
2018-04-30T19:03:55.220Z,7.18
2018-04-30T19:06:26.396Z,6.20
2018-04-30T19:08:57.317Z,7.20
2018-04-30T19:11:27.944Z,6.96
2018-04-30T19:13:58.709Z,6.82
2018-04-30T19:16:29.517Z,6.37
2018-04-30T19:19:00.258Z,7.12
2018-04-30T19:21:31.321Z,6.93
2018-04-30T19:24:02.036Z,9.32
2018-04-30T19:26:33.574Z,9.37
2018-04-30T19:29:03.602Z,12.25
2018-04-30T19:31:35.200Z,13.27
2018-04-30T19:34:06.717Z,12.96
2018-04-30T19:36:35.774Z,13.33
2018-04-30T19:39:06.048Z,13.68
2018-04-30T19:41:36.626Z,19.50
2018-04-30T19:44:07.390Z,11.50
2018-04-30T19:46:38.718Z,11.65
2018-04-30T19:49:09.448Z,11.00
2018-04-30T19:51:39.606Z,11.45
2018-04-30T19:54:10.358Z,11.90
2018-04-30T19:56:41.312Z,11.60
2018-04-30T19:59:12.166Z,13.55
2018-04-30T20:01:43.212Z,7.97
2018-04-30T20:04:13.829Z,7.36
2018-04-30T20:06:44.640Z,6.97
2018-04-30T20:09:15.400Z,6.40
2018-04-30T20:11:46.396Z,5.45
2018-04-30T20:14:17.177Z,4.90
2018-04-30T20:16:48.457Z,4.65
2018-04-30T20:19:19.162Z,4.20
2018-04-30T20:21:50.193Z,4.30
2018-04-30T20:24:21.217Z,3.65
2018-04-30T20:26:52.239Z,3.70
2018-04-30T20:29:23.213Z,3.80
2018-04-30T20:31:54.908Z,4.96
2018-04-30T20:34:25.386Z,4.10
2018-04-30T20:36:56.549Z,3.45
2018-04-30T20:39:27.118Z,3.95
2018-04-30T20:41:58.284Z,3.90
2018-04-30T20:44:29.238Z,4.07
2018-04-30T20:47:00.646Z,3.12
2018-04-30T20:49:30.593Z,3.08
2018-04-30T20:52:01.634Z,4.45
2018-04-30T20:54:32.382Z,14.70
2018-04-30T20:57:03.347Z,6.20
2018-04-30T20:59:34.242Z,4.68
2018-04-30T21:02:04.991Z,6.10
2018-04-30T21:04:36.564Z,6.92
2018-04-30T21:07:07.326Z,5.68
2018-04-30T21:09:38.163Z,5.37
2018-04-30T21:12:08.979Z,4.97
2018-04-30T21:14:40.471Z,6.28
2018-04-30T21:17:10.678Z,5.82
2018-04-30T21:19:41.386Z,5.00
2018-04-30T21:22:12.221Z,4.45
2018-04-30T21:24:43.284Z,4.43
2018-04-30T21:27:13.904Z,5.32
2018-04-30T21:29:44.540Z,3.80
2018-04-30T21:32:15.323Z,4.10
2018-04-30T21:34:46.113Z,4.10
2018-04-30T21:37:17.199Z,5.20
2018-04-30T21:39:48.126Z,4.62
2018-04-30T21:42:19.246Z,5.93
2018-04-30T21:44:50.113Z,5.68
2018-04-30T21:47:21.477Z,4.93
2018-04-30T21:49:52.238Z,5.05
2018-04-30T21:52:23.600Z,4.12
2018-04-30T21:54:54.282Z,4.18
2018-04-30T21:57:24.885Z,3.86
2018-04-30T21:59:55.517Z,4.50
2018-04-30T22:02:26.267Z,4.15
2018-04-30T22:04:57.156Z,4.75
2018-04-30T22:07:28.183Z,4.75
2018-04-30T22:09:59.117Z,4.40
2018-04-30T22:12:30.210Z,4.35
2018-04-30T22:15:01.230Z,4.70
2018-04-30T22:17:32.551Z,4.30
2018-04-30T22:20:03.227Z,4.68
2018-04-30T22:22:33.866Z,4.18
2018-04-30T22:25:04.249Z,4.28
2018-04-30T22:27:35.178Z,4.35
2018-04-30T22:30:06.439Z,4.12
2018-04-30T22:32:37.275Z,4.47
2018-04-30T22:35:08.136Z,4.82
2018-04-30T22:37:39.234Z,4.28
2018-04-30T22:40:10.242Z,4.00
2018-04-30T22:42:41.175Z,3.90
2018-04-30T22:45:11.789Z,3.98
2018-04-30T22:47:42.516Z,4.12
2018-04-30T22:50:13.232Z,4.03
2018-04-30T22:52:44.261Z,3.97
2018-04-30T22:55:15.135Z,3.62
2018-04-30T22:57:46.250Z,4.35
2018-04-30T23:00:18.046Z,4.07
2018-04-30T23:02:48.798Z,5.85
2018-04-30T23:05:18.752Z,7.07
2018-04-30T23:07:49.514Z,6.37
2018-04-30T23:10:20.214Z,11.12
2018-04-30T23:12:51.343Z,9.80
2018-04-30T23:15:22.224Z,11.50
2018-04-30T23:17:53.434Z,10.80
2018-04-30T23:20:24.187Z,7.40
2018-04-30T23:22:54.911Z,6.98
2018-04-30T23:25:25.419Z,5.87
2018-04-30T23:27:56.219Z,5.47
2018-04-30T23:30:27.253Z,5.45
2018-04-30T23:32:58.235Z,5.37
2018-04-30T23:35:29.186Z,5.05
2018-04-30T23:38:00.051Z,5.20
2018-04-30T23:40:30.693Z,5.70
2018-04-30T23:43:01.461Z,5.70
2018-04-30T23:45:32.172Z,5.32
2018-04-30T23:48:03.286Z,5.45
2018-04-30T23:50:34.156Z,5.90
2018-04-30T23:53:05.249Z,6.18
2018-04-30T23:55:36.260Z,6.05
2018-04-30T23:58:07.530Z,6.25
